createdAt,value
2018-01-11T00:00:52.926Z,4.80
2018-01-11T00:03:20.396Z,4.67
2018-01-11T00:05:47.919Z,4.23
2018-01-11T00:08:15.446Z,4.83
2018-01-11T00:10:42.911Z,5.10
2018-01-11T00:13:10.398Z,5.10
2018-01-11T00:15:38.641Z,5.23
2018-01-11T00:18:06.181Z,5.07
2018-01-11T00:20:33.662Z,4.87
2018-01-11T00:23:01.130Z,4.80
2018-01-11T00:25:28.602Z,5.67
2018-01-11T00:27:56.095Z,4.70
2018-01-11T00:30:23.634Z,4.93
2018-01-11T00:32:51.206Z,4.80
2018-01-11T00:35:18.699Z,5.17
2018-01-11T00:37:46.162Z,5.23
2018-01-11T00:40:13.635Z,4.93
2018-01-11T00:42:41.115Z,4.83
2018-01-11T00:45:08.591Z,5.10
2018-01-11T00:47:36.063Z,5.13
2018-01-11T00:50:03.555Z,5.10
2018-01-11T00:52:31.126Z,5.80
2018-01-11T00:54:58.602Z,5.67
2018-01-11T00:57:26.178Z,5.87
2018-01-11T00:59:53.646Z,6.37
2018-01-11T01:02:21.139Z,5.90
2018-01-11T01:04:49.394Z,5.80
2018-01-11T01:07:16.911Z,6.10
2018-01-11T01:09:44.454Z,6.90
2018-01-11T01:12:11.956Z,6.50
2018-01-11T01:14:39.430Z,6.80
2018-01-11T01:17:06.905Z,6.80
2018-01-11T01:19:34.433Z,6.33
2018-01-11T01:22:01.863Z,6.30
2018-01-11T01:24:29.334Z,6.07
2018-01-11T01:26:56.818Z,6.53
2018-01-11T01:29:24.286Z,6.07
2018-01-11T01:31:51.770Z,6.00
2018-01-11T01:34:19.351Z,6.47
2018-01-11T01:36:46.924Z,6.17
2018-01-11T01:39:14.386Z,5.70
2018-01-11T01:41:41.875Z,6.00
2018-01-11T01:44:10.155Z,5.80
2018-01-11T01:46:37.726Z,5.27
2018-01-11T01:49:05.332Z,6.00
2018-01-11T01:51:32.906Z,5.63
2018-01-11T01:54:00.375Z,5.80
2018-01-11T01:56:27.866Z,6.00
2018-01-11T01:58:55.382Z,6.20
2018-01-11T02:01:22.854Z,5.43
2018-01-11T02:03:50.342Z,5.63
2018-01-11T02:06:18.579Z,5.83
2018-01-11T02:08:46.038Z,5.77
2018-01-11T02:11:13.525Z,6.43
2018-01-11T02:13:40.995Z,6.13
2018-01-11T02:16:08.591Z,6.33
2018-01-11T02:18:36.086Z,6.60
2018-01-11T02:21:04.362Z,6.73
2018-01-11T02:23:31.851Z,7.40
2018-01-11T02:25:59.434Z,7.27
2018-01-11T02:28:26.996Z,7.70
2018-01-11T02:30:54.480Z,7.47
2018-01-11T02:33:21.983Z,7.50
2018-01-11T02:35:49.478Z,7.53
2018-01-11T02:38:17.047Z,7.43
2018-01-11T02:40:44.547Z,8.37
2018-01-11T02:43:12.087Z,8.53
2018-01-11T02:45:39.560Z,8.97
2018-01-11T02:48:07.131Z,9.30
2018-01-11T02:50:34.702Z,8.40
2018-01-11T02:53:02.172Z,8.27
2018-01-11T02:55:29.658Z,8.47
2018-01-11T02:57:57.907Z,9.70
2018-01-11T03:00:29.291Z,8.87
2018-01-11T03:02:56.867Z,8.97
2018-01-11T03:05:24.438Z,8.63
2018-01-11T03:07:51.943Z,9.33
2018-01-11T03:10:19.416Z,8.77
2018-01-11T03:12:46.890Z,8.43
2018-01-11T03:15:14.422Z,8.70
2018-01-11T03:17:41.894Z,9.93
2018-01-11T03:20:09.367Z,9.00
2018-01-11T03:22:36.863Z,9.37
2018-01-11T03:25:04.343Z,9.03
2018-01-11T03:27:31.807Z,8.97
2018-01-11T03:29:59.296Z,8.10
2018-01-11T03:32:26.761Z,7.90
2018-01-11T03:34:54.230Z,7.80
2018-01-11T03:37:21.723Z,8.57
2018-01-11T03:39:49.223Z,8.67
2018-01-11T03:42:16.790Z,8.17
2018-01-11T03:44:44.283Z,7.90
2018-01-11T03:47:12.519Z,7.40
2018-01-11T03:49:39.990Z,8.17
2018-01-11T03:52:07.474Z,8.40
2018-01-11T03:54:34.938Z,8.20
2018-01-11T03:57:02.406Z,7.97
2018-01-11T03:59:29.894Z,7.87
2018-01-11T04:01:57.363Z,8.53
2018-01-11T04:04:24.831Z,7.83
2018-01-11T04:06:52.318Z,8.90
2018-01-11T04:09:19.887Z,8.70
2018-01-11T04:11:47.391Z,8.47
2018-01-11T04:14:14.927Z,8.70
2018-01-11T04:16:43.174Z,8.90
2018-01-11T04:19:10.644Z,8.77
2018-01-11T04:21:38.161Z,8.87
2018-01-11T04:24:06.411Z,9.00
2018-01-11T04:26:34.019Z,9.13
2018-01-11T04:29:01.624Z,9.33
2018-01-11T04:31:29.092Z,8.90
2018-01-11T04:33:56.559Z,8.87
2018-01-11T04:36:24.811Z,8.80
2018-01-11T04:38:52.286Z,8.50
2018-01-11T04:41:19.759Z,8.13
2018-01-11T04:43:47.331Z,8.17
2018-01-11T04:46:14.842Z,8.73
2018-01-11T04:48:42.414Z,8.73
2018-01-11T04:51:09.954Z,9.27
2018-01-11T04:53:37.527Z,9.33
2018-01-11T04:56:04.998Z,8.70
2018-01-11T04:58:32.495Z,8.73
2018-01-11T05:00:59.963Z,9.53
2018-01-11T05:03:27.521Z,10.10
2018-01-11T05:05:55.815Z,9.30
2018-01-11T05:08:24.055Z,9.10
2018-01-11T05:10:51.536Z,10.53
2018-01-11T05:13:19.027Z,8.90
2018-01-11T05:15:46.502Z,9.60
2018-01-11T05:18:13.975Z,9.70
2018-01-11T05:20:42.254Z,9.77
2018-01-11T05:23:09.818Z,9.27
2018-01-11T05:25:37.348Z,9.77
2018-01-11T05:28:04.844Z,9.30
2018-01-11T05:30:32.311Z,9.60
2018-01-11T05:32:59.778Z,8.93
2018-01-11T05:35:27.375Z,9.87
2018-01-11T05:37:54.858Z,10.43
2018-01-11T05:40:23.104Z,9.40
2018-01-11T05:42:50.602Z,39.53
2018-01-11T05:45:18.084Z,18.63
2018-01-11T05:47:45.558Z,11.47
2018-01-11T05:52:29.138Z,33.27
2018-01-11T05:54:57.441Z,41.03
2018-01-11T05:57:25.015Z,11.50
2018-01-11T05:59:52.522Z,10.77
2018-01-11T06:02:19.998Z,9.77
2018-01-11T06:04:47.470Z,11.10
2018-01-11T06:07:15.062Z,10.43
2018-01-11T06:09:42.638Z,11.33
2018-01-11T06:12:10.107Z,12.27
2018-01-11T06:14:37.677Z,11.07
2018-01-11T06:17:05.164Z,10.77
2018-01-11T06:19:32.655Z,11.83
2018-01-11T06:22:00.150Z,12.17
2018-01-11T06:24:27.626Z,12.40
2018-01-11T06:26:55.136Z,12.23
2018-01-11T06:29:22.627Z,12.30
2018-01-11T06:31:50.862Z,12.13
2018-01-11T06:34:18.334Z,12.17
2018-01-11T06:36:45.835Z,11.60
2018-01-11T06:39:13.407Z,11.10
2018-01-11T06:41:40.883Z,12.00
2018-01-11T06:44:09.159Z,12.23
2018-01-11T06:46:36.703Z,11.73
2018-01-11T06:49:04.244Z,11.87
2018-01-11T06:51:31.770Z,11.90
2018-01-11T06:53:59.238Z,11.77
2018-01-11T06:56:28.246Z,11.77
2018-01-11T06:58:55.743Z,12.37
2018-01-11T07:01:23.982Z,12.70
2018-01-11T07:03:51.462Z,12.10
2018-01-11T07:06:19.082Z,11.70
2018-01-11T07:08:47.308Z,11.90
2018-01-11T07:11:14.783Z,12.73
2018-01-11T07:13:42.275Z,12.47
2018-01-11T07:16:09.751Z,13.73
2018-01-11T07:18:37.319Z,12.33
2018-01-11T07:21:04.817Z,13.07
2018-01-11T07:23:33.116Z,13.10
2018-01-11T07:26:00.591Z,12.97
2018-01-11T07:28:28.157Z,12.63
2018-01-11T07:30:55.730Z,11.73
2018-01-11T07:33:23.215Z,12.33
2018-01-11T07:35:50.734Z,11.40
2018-01-11T07:38:18.270Z,11.43
2018-01-11T07:40:45.748Z,11.57
2018-01-11T07:43:13.281Z,11.60
2018-01-11T07:45:40.819Z,11.27
2018-01-11T07:48:08.395Z,11.53
2018-01-11T07:50:35.966Z,11.23
2018-01-11T07:53:03.544Z,11.57
2018-01-11T07:55:31.023Z,11.07
2018-01-11T07:57:59.276Z,11.60
2018-01-11T08:00:26.823Z,11.20
2018-01-11T08:02:55.047Z,10.57
2018-01-11T08:05:22.831Z,10.13
2018-01-11T08:07:50.312Z,10.07
2018-01-11T08:10:18.573Z,11.30
2018-01-11T08:12:46.117Z,11.10
2018-01-11T08:15:14.793Z,10.77
2018-01-11T08:17:42.270Z,11.20
2018-01-11T08:20:09.769Z,11.83
2018-01-11T08:22:37.275Z,12.13
2018-01-11T08:25:04.843Z,11.17
2018-01-11T08:27:32.420Z,11.70
2018-01-11T08:29:59.902Z,12.03
2018-01-11T08:32:28.158Z,11.50
2018-01-11T08:34:55.630Z,12.67
2018-01-11T08:37:23.140Z,11.73
2018-01-11T08:39:51.382Z,11.60
2018-01-11T08:42:18.912Z,11.83
2018-01-11T08:44:46.412Z,13.07
2018-01-11T08:47:13.892Z,11.63
2018-01-11T08:49:41.491Z,11.10
2018-01-11T08:52:09.067Z,11.50
2018-01-11T08:54:36.543Z,11.63
2018-01-11T08:57:04.803Z,11.13
2018-01-11T08:59:32.339Z,10.47
2018-01-11T09:01:59.867Z,11.17
2018-01-11T09:04:28.215Z,11.60
2018-01-11T09:06:55.691Z,14.20
2018-01-11T09:09:23.182Z,13.03
2018-01-11T09:11:50.946Z,13.23
2018-01-11T09:14:18.547Z,12.73
2018-01-11T09:16:46.122Z,13.57
2018-01-11T09:19:13.696Z,12.67
2018-01-11T09:21:41.193Z,13.03
2018-01-11T09:24:08.767Z,12.47
2018-01-11T09:26:36.339Z,12.27
2018-01-11T09:29:03.876Z,13.27
2018-01-11T09:31:31.355Z,12.13
2018-01-11T09:33:58.920Z,11.97
2018-01-11T09:36:26.395Z,11.67
2018-01-11T09:38:53.971Z,10.70
2018-01-11T09:41:22.255Z,10.67
2018-01-11T09:43:51.247Z,10.67
2018-01-11T09:46:18.742Z,10.80
2018-01-11T09:48:46.987Z,10.93
2018-01-11T09:51:14.480Z,10.17
2018-01-11T09:53:41.951Z,9.97
2018-01-11T09:56:09.528Z,10.07
2018-01-11T09:58:37.008Z,9.30
2018-01-11T10:01:05.324Z,9.27
2018-01-11T10:03:32.859Z,9.70
2018-01-11T10:06:00.331Z,8.93
2018-01-11T10:08:28.043Z,9.63
2018-01-11T10:10:55.515Z,8.73
2018-01-11T10:13:23.050Z,9.30
2018-01-11T10:15:51.359Z,9.57
2018-01-11T10:18:19.621Z,9.30
2018-01-11T10:20:47.195Z,9.47
2018-01-11T10:23:15.484Z,9.10
2018-01-11T10:25:43.074Z,9.00
2018-01-11T10:28:11.312Z,8.30
2018-01-11T10:30:38.803Z,8.30
2018-01-11T10:33:06.283Z,8.03
2018-01-11T10:35:33.783Z,7.57
2018-01-11T10:38:02.048Z,8.53
2018-01-11T10:40:29.523Z,9.37
2018-01-11T10:42:57.087Z,8.13
2018-01-11T10:45:24.563Z,8.07
2018-01-11T10:47:52.059Z,8.10
2018-01-11T10:50:20.531Z,8.00
2018-01-11T10:52:48.682Z,7.77
2018-01-11T10:55:16.175Z,8.30
2018-01-11T10:57:43.646Z,8.10
2018-01-11T11:00:11.221Z,8.20
2018-01-11T11:02:44.491Z,7.80
2018-01-11T11:05:12.030Z,7.43
2018-01-11T11:07:39.507Z,8.17
2018-01-11T11:10:06.991Z,8.97
2018-01-11T11:12:34.478Z,8.40
2018-01-11T11:15:01.971Z,8.43
2018-01-11T11:17:29.547Z,7.97
2018-01-11T11:19:57.795Z,7.33
2018-01-11T11:22:25.287Z,7.83
2018-01-11T11:24:52.759Z,7.47
2018-01-11T11:27:20.357Z,7.30
2018-01-11T11:29:47.852Z,7.17
2018-01-11T11:32:16.111Z,7.50
2018-01-11T11:34:43.587Z,7.03
2018-01-11T11:37:11.059Z,7.47
2018-01-11T11:39:39.331Z,8.00
2018-01-11T11:42:06.811Z,7.87
2018-01-11T11:44:34.387Z,7.90
2018-01-11T11:47:02.799Z,6.70
2018-01-11T11:49:31.103Z,6.90
2018-01-11T11:51:58.726Z,7.40
2018-01-11T11:54:26.296Z,6.80
2018-01-11T11:56:54.004Z,7.10
2018-01-11T11:59:22.598Z,8.10
2018-01-11T12:01:50.910Z,7.77
2018-01-11T12:04:18.385Z,7.33
2018-01-11T12:06:45.911Z,7.17
2018-01-11T12:09:13.382Z,7.73
2018-01-11T12:11:40.856Z,7.77
2018-01-11T12:14:08.432Z,7.90
2018-01-11T12:16:35.953Z,6.80
2018-01-11T12:19:03.463Z,7.40
2018-01-11T12:21:31.043Z,6.90
2018-01-11T12:23:58.616Z,7.53
2018-01-11T12:26:26.096Z,7.67
2018-01-11T12:28:53.571Z,7.97
2018-01-11T12:31:21.827Z,7.10
2018-01-11T12:33:49.315Z,7.67
2018-01-11T12:36:16.816Z,7.73
2018-01-11T12:38:44.294Z,7.17
2018-01-11T12:41:11.792Z,7.07
2018-01-11T12:43:39.327Z,7.10
2018-01-11T12:46:06.902Z,7.67
2018-01-11T12:48:34.441Z,7.30
2018-01-11T12:51:01.945Z,8.00
2018-01-11T12:53:29.487Z,8.20
2018-01-11T12:55:57.035Z,7.47
2018-01-11T12:58:24.633Z,7.70
2018-01-11T13:00:52.115Z,7.30
2018-01-11T13:03:19.766Z,7.27
2018-01-11T13:05:48.036Z,6.97
2018-01-11T13:08:15.520Z,6.63
2018-01-11T13:10:44.515Z,6.27
2018-01-11T13:13:12.024Z,6.70
2018-01-11T13:15:40.276Z,6.40
2018-01-11T13:18:07.755Z,6.13
2018-01-11T13:20:35.263Z,5.93
2018-01-11T13:23:03.515Z,6.50
2018-01-11T13:25:31.003Z,6.50
2018-01-11T13:27:59.259Z,6.90
2018-01-11T13:30:26.750Z,7.20
2018-01-11T13:32:55.043Z,7.13
2018-01-11T13:35:22.531Z,7.70
2018-01-11T13:37:50.795Z,7.80
2018-01-11T13:40:18.371Z,8.30
2018-01-11T13:42:45.946Z,8.70
2018-01-11T13:45:13.439Z,8.37
2018-01-11T13:47:41.679Z,8.53
2018-01-11T13:50:09.172Z,8.03
2018-01-11T13:52:36.744Z,9.23
2018-01-11T13:55:04.252Z,8.03
2018-01-11T13:57:31.722Z,8.20
2018-01-11T13:59:59.202Z,9.00
2018-01-11T14:02:26.695Z,8.80
2018-01-11T14:04:54.203Z,9.67
2018-01-11T14:07:21.779Z,11.33
2018-01-11T14:09:50.029Z,11.47
2018-01-11T14:12:17.527Z,12.57
2018-01-11T14:14:45.017Z,12.00
2018-01-11T14:17:13.295Z,12.37
2018-01-11T14:19:41.560Z,13.23
2018-01-11T14:22:09.047Z,13.33
2018-01-11T14:24:36.627Z,12.90
2018-01-11T14:27:04.107Z,12.93
2018-01-11T14:29:32.370Z,12.80
2018-01-11T14:31:59.850Z,12.57
2018-01-11T14:34:27.423Z,12.73
2018-01-11T14:36:54.995Z,12.67
2018-01-11T14:39:22.479Z,12.67
2018-01-11T14:41:50.757Z,12.13
2018-01-11T14:44:18.261Z,12.57
2018-01-11T14:46:45.758Z,12.13
2018-01-11T14:49:13.235Z,10.93
2018-01-11T14:51:40.719Z,11.40
2018-01-11T14:54:08.213Z,12.80
2018-01-11T14:56:35.783Z,12.03
2018-01-11T14:59:03.275Z,11.23
2018-01-11T15:01:31.539Z,11.47
2018-01-11T15:03:59.054Z,11.27
2018-01-11T15:06:26.616Z,11.13
2018-01-11T15:08:54.162Z,12.03
2018-01-11T15:11:21.662Z,11.53
2018-01-11T15:13:49.156Z,11.10
2018-01-11T15:16:16.652Z,10.80
2018-01-11T15:18:44.131Z,10.33
2018-01-11T15:21:12.395Z,10.70
2018-01-11T15:23:39.879Z,12.33
2018-01-11T15:26:07.367Z,12.30
2018-01-11T15:28:34.939Z,14.07
2018-01-11T15:31:02.415Z,14.53
2018-01-11T15:33:29.930Z,14.93
2018-01-11T15:35:57.455Z,15.27
2018-01-11T15:38:25.028Z,16.20
2018-01-11T15:40:52.529Z,15.13
2018-01-11T15:43:20.007Z,16.40
2018-01-11T15:45:47.519Z,15.37
2018-01-11T15:48:14.999Z,16.67
2018-01-11T15:50:42.479Z,17.60
2018-01-11T15:53:09.970Z,17.77
2018-01-11T15:55:38.211Z,16.83
2018-01-11T15:58:05.707Z,17.70
2018-01-11T16:00:33.187Z,17.83
2018-01-11T16:03:00.663Z,17.57
2018-01-11T16:05:28.946Z,17.00
2018-01-11T16:07:56.418Z,16.50
2018-01-11T16:10:24.900Z,16.57
2018-01-11T16:12:52.377Z,16.47
2018-01-11T16:15:19.855Z,16.90
2018-01-11T16:17:48.116Z,15.97
2018-01-11T16:20:15.603Z,16.83
2018-01-11T16:22:43.172Z,17.00
2018-01-11T16:25:10.674Z,17.87
2018-01-11T16:27:38.150Z,16.07
2018-01-11T16:30:05.667Z,16.70
2018-01-11T16:32:33.149Z,17.13
2018-01-11T16:35:00.724Z,15.33
2018-01-11T16:37:28.232Z,15.77
2018-01-11T16:39:55.753Z,16.00
2018-01-11T16:42:23.232Z,15.10
2018-01-11T16:44:50.724Z,15.30
2018-01-11T16:47:18.991Z,17.33
2018-01-11T16:49:46.467Z,15.93
2018-01-11T16:52:13.960Z,15.70
2018-01-11T16:54:42.204Z,15.37
2018-01-11T16:57:09.699Z,15.43
2018-01-11T16:59:37.174Z,15.87
2018-01-11T17:02:05.424Z,15.77
2018-01-11T17:04:32.922Z,16.27
2018-01-11T17:07:00.414Z,16.93
2018-01-11T17:09:28.671Z,16.57
2018-01-11T17:11:57.005Z,16.73
2018-01-11T17:14:24.486Z,16.13
2018-01-11T17:16:52.046Z,15.33
2018-01-11T17:19:19.628Z,15.30
2018-01-11T17:21:47.167Z,14.73
2018-01-11T17:24:15.855Z,14.43
2018-01-11T17:26:43.350Z,15.13
2018-01-11T17:29:11.592Z,13.70
2018-01-11T17:31:39.084Z,12.40
2018-01-11T17:34:06.589Z,12.77
2018-01-11T17:36:34.067Z,13.13
2018-01-11T17:39:01.631Z,13.47
2018-01-11T17:41:29.108Z,13.40
2018-01-11T17:43:56.604Z,12.70
2018-01-11T17:46:24.086Z,13.03
2018-01-11T17:48:51.594Z,12.40
2018-01-11T17:51:19.860Z,13.53
2018-01-11T17:53:47.332Z,12.63
2018-01-11T17:56:14.823Z,12.13
2018-01-11T17:58:43.063Z,14.13
2018-01-11T18:01:10.564Z,13.57
2018-01-11T18:03:38.812Z,13.47
2018-01-11T18:06:06.324Z,14.77
2018-01-11T18:08:33.816Z,13.50
2018-01-11T18:11:02.060Z,14.63
2018-01-11T18:13:29.570Z,14.67
2018-01-11T18:15:57.815Z,14.57
2018-01-11T18:18:25.312Z,15.40
2018-01-11T18:20:52.799Z,15.57
2018-01-11T18:23:21.047Z,15.97
2018-01-11T18:25:48.563Z,16.77
2018-01-11T18:28:16.832Z,16.17
2018-01-11T18:30:44.322Z,16.37
2018-01-11T18:33:12.572Z,16.33
2018-01-11T18:35:40.160Z,17.40
2018-01-11T18:38:07.651Z,17.00
2018-01-11T18:40:35.900Z,18.50
2018-01-11T18:43:03.391Z,17.53
2018-01-11T18:45:30.888Z,18.07
2018-01-11T18:47:59.151Z,18.43
2018-01-11T18:50:26.662Z,19.17
2018-01-11T18:52:54.160Z,19.03
2018-01-11T18:55:21.639Z,18.87
2018-01-11T18:57:49.119Z,19.50
2018-01-11T19:00:16.615Z,19.00
2018-01-11T19:02:44.926Z,20.60
2018-01-11T19:05:12.423Z,19.07
2018-01-11T19:07:39.914Z,18.17
2018-01-11T19:10:07.416Z,18.37
2018-01-11T19:12:35.659Z,18.53
2018-01-11T19:15:03.203Z,18.50
2018-01-11T19:17:30.742Z,17.30
2018-01-11T19:19:58.992Z,17.63
2018-01-11T19:22:26.504Z,18.93
2018-01-11T19:24:53.984Z,20.13
2018-01-11T19:27:22.264Z,19.83
2018-01-11T19:29:49.757Z,18.77
2018-01-11T19:32:17.239Z,19.53
2018-01-11T19:34:44.732Z,19.17
2018-01-11T19:37:12.215Z,20.03
2018-01-11T19:39:39.815Z,19.00
2018-01-11T19:42:07.295Z,20.47
2018-01-11T19:44:35.567Z,20.30
2018-01-11T19:47:03.272Z,19.97
2018-01-11T19:49:30.780Z,20.30
2018-01-11T19:51:58.355Z,20.03
2018-01-11T19:56:09.300Z,18.57
2018-01-11T19:58:36.796Z,19.27
2018-01-11T20:01:04.342Z,18.13
2018-01-11T20:03:31.994Z,18.30
2018-01-11T20:05:59.466Z,18.60
2018-01-11T20:08:27.082Z,19.10
2018-01-11T20:10:54.657Z,20.17
2018-01-11T20:13:22.231Z,19.27
2018-01-11T20:15:49.728Z,18.97
2018-01-11T20:18:17.239Z,19.53
2018-01-11T20:20:44.739Z,20.53
2018-01-11T20:23:12.219Z,20.30
2018-01-11T20:25:39.727Z,30.50
2018-01-11T20:28:07.213Z,132.37
2018-01-11T20:30:34.699Z,21.57
2018-01-11T20:33:02.990Z,21.03
2018-01-11T20:35:31.315Z,19.93
2018-01-11T20:37:58.843Z,21.07
2018-01-11T20:40:26.324Z,21.50
2018-01-11T20:42:54.596Z,22.73
2018-01-11T20:45:22.122Z,22.73
2018-01-11T20:47:49.575Z,22.77
2018-01-11T20:50:17.114Z,22.00
2018-01-11T20:52:44.592Z,26.80
2018-01-11T20:55:12.847Z,35.30
2018-01-11T20:57:40.323Z,23.90
2018-01-11T21:00:07.827Z,24.47
2018-01-11T21:02:36.128Z,22.83
2018-01-11T21:05:03.706Z,23.33
2018-01-11T21:07:31.277Z,23.60
2018-01-11T21:09:58.751Z,23.90
2018-01-11T21:12:26.283Z,22.13
2018-01-11T21:14:53.888Z,23.13
2018-01-11T21:17:21.380Z,23.10
2018-01-11T21:19:48.900Z,23.17
2018-01-11T21:22:16.435Z,24.53
2018-01-11T21:24:43.940Z,66.30
2018-01-11T21:27:11.547Z,31.80
2018-01-11T21:29:39.294Z,25.00
2018-01-11T21:32:06.793Z,23.17
2018-01-11T21:34:34.331Z,24.63
2018-01-11T21:37:01.812Z,24.27
2018-01-11T21:39:30.191Z,26.03
2018-01-11T21:41:57.675Z,24.27
2018-01-11T21:44:25.947Z,25.83
2018-01-11T21:46:53.427Z,90.57
2018-01-11T21:49:21.711Z,34.03
2018-01-11T21:51:49.196Z,26.97
2018-01-11T21:54:17.502Z,26.07
2018-01-11T21:56:44.980Z,26.40
2018-01-11T21:59:12.475Z,26.87
2018-01-11T22:01:39.955Z,26.33
2018-01-11T22:04:07.431Z,26.90
2018-01-11T22:06:34.926Z,26.20
2018-01-11T22:09:03.183Z,25.57
2018-01-11T22:11:30.679Z,25.97
2018-01-11T22:13:58.159Z,26.70
2018-01-11T22:16:25.675Z,26.07
2018-01-11T22:18:53.151Z,26.23
2018-01-11T22:21:20.630Z,26.07
2018-01-11T22:23:48.171Z,27.33
2018-01-11T22:26:15.707Z,27.97
2018-01-11T22:28:43.196Z,26.73
2018-01-11T22:31:11.467Z,27.87
2018-01-11T22:33:39.026Z,27.03
2018-01-11T22:36:06.611Z,27.53
2018-01-11T22:38:34.087Z,28.27
2018-01-11T22:41:01.656Z,28.70
2018-01-11T22:43:29.143Z,29.03
2018-01-11T22:45:57.395Z,28.27
2018-01-11T22:48:24.883Z,29.40
2018-01-11T22:50:52.376Z,30.80
2018-01-11T22:53:19.862Z,30.50
2018-01-11T22:55:47.396Z,28.70
2018-01-11T22:58:15.667Z,29.87
2018-01-11T23:00:43.155Z,29.93
2018-01-11T23:03:10.647Z,30.40
2018-01-11T23:05:38.883Z,28.63
2018-01-11T23:08:06.375Z,29.40
2018-01-11T23:10:33.875Z,29.67
2018-01-11T23:13:02.116Z,28.40
2018-01-11T23:15:29.611Z,30.30
2018-01-11T23:17:57.093Z,29.40
2018-01-11T23:20:25.354Z,30.37
2018-01-11T23:22:52.852Z,29.90
2018-01-11T23:25:21.130Z,31.40
2018-01-11T23:27:48.836Z,30.03
2018-01-11T23:30:16.377Z,27.97
2018-01-11T23:32:43.886Z,30.70
2018-01-11T23:35:11.367Z,31.50
2018-01-11T23:37:38.860Z,29.63
2018-01-11T23:40:06.359Z,31.17
2018-01-11T23:42:33.947Z,34.33
2018-01-11T23:45:02.188Z,32.47
2018-01-11T23:47:29.662Z,32.73
2018-01-11T23:49:57.179Z,32.83
2018-01-11T23:52:25.452Z,32.67
2018-01-11T23:54:53.019Z,32.97
2018-01-11T23:57:20.628Z,33.00
2018-01-11T23:59:48.123Z,33.17
